Time;durP1;ratioP1;P1;durP2;ratioP2;P2;SDS_P1;SDS_P2;PMS_P1;PMS_P2;Temp;Humidity;BMP_temperature;BMP_pressure;BME280_temperature;BME280_humidity;BME280_pressure;Samples;Min_cycle;Max_cycle;Signal;HPM_P1;HPM_P2
2023/04/06 00:01:32;;;;;;;0.97;0.97;;;0.30;84.80;;;;;;5047494;28;20222;-81
2023/04/06 00:03:58;;;;;;;0.60;0.60;;;0.30;84.60;;;;;;5050063;28;20176;-81
2023/04/06 00:06:23;;;;;;;0.70;0.70;;;0.30;84.80;;;;;;5045336;28;20242;-80
2023/04/06 00:08:49;;;;;;;0.60;0.60;;;0.30;84.80;;;;;;5056905;28;20294;-81
2023/04/06 00:11:16;;;;;;;3.10;1.00;;;0.30;84.70;;;;;;5048935;28;20183;-80
2023/04/06 00:13:42;;;;;;;0.40;0.40;;;0.30;84.90;;;;;;5047944;28;20258;-80
2023/04/06 00:16:07;;;;;;;0.47;0.47;;;0.20;85.00;;;;;;5052358;28;20328;-80
2023/04/06 00:18:33;;;;;;;0.83;0.83;;;0.10;85.20;;;;;;5049581;28;20193;-80
2023/04/06 00:20:59;;;;;;;0.90;0.57;;;0.10;85.20;;;;;;5049460;28;20221;-80
2023/04/06 00:23:25;;;;;;;1.00;1.00;;;0.10;85.30;;;;;;5050404;28;20183;-80
2023/04/06 00:25:50;;;;;;;0.77;0.77;;;0.10;85.40;;;;;;5048782;28;20997;-80
2023/04/06 00:28:17;;;;;;;0.60;0.60;;;0.20;85.40;;;;;;5047658;28;20356;-79
2023/04/06 00:30:43;;;;;;;1.23;0.73;;;0.10;85.30;;;;;;5047086;28;20269;-80
2023/04/06 00:33:08;;;;;;;0.47;0.47;;;0.10;85.50;;;;;;5051156;28;20274;-80
2023/04/06 00:35:34;;;;;;;0.53;0.40;;;0.10;85.50;;;;;;5051636;28;21691;-80
2023/04/06 00:38:00;;;;;;;0.57;0.57;;;0.20;85.70;;;;;;5049555;28;20244;-80
2023/04/06 00:40:28;;;;;;;0.70;0.70;;;0.20;85.50;;;;;;5048918;28;20668;-80
2023/04/06 00:42:54;;;;;;;0.40;0.40;;;0.10;85.60;;;;;;5051552;28;20207;-80
2023/04/06 00:45:20;;;;;;;0.37;0.37;;;0.10;85.90;;;;;;5045213;28;20191;-80
2023/04/06 00:47:46;;;;;;;0.80;0.73;;;0.10;85.80;;;;;;5051087;28;20207;-79
2023/04/06 00:50:11;;;;;;;1.03;1.03;;;0.10;85.80;;;;;;5056874;28;20290;-79
2023/04/06 00:52:37;;;;;;;0.63;0.63;;;0.20;85.60;;;;;;5052660;28;20180;-79
2023/04/06 00:55:04;;;;;;;2.67;0.70;;;0.30;85.40;;;;;;5053476;28;20184;-80
2023/04/06 00:57:30;;;;;;;0.43;0.43;;;0.30;85.30;;;;;;5049512;28;20572;-80
2023/04/06 00:59:56;;;;;;;0.97;0.73;;;0.20;85.20;;;;;;5056152;28;20176;-80
2023/04/06 01:02:23;;;;;;;0.40;0.40;;;0.20;85.20;;;;;;5053520;28;20245;-80
2023/04/06 01:04:48;;;;;;;0.63;0.63;;;0.30;85.20;;;;;;5054261;28;20556;-80
2023/04/06 01:07:14;;;;;;;0.40;0.40;;;0.30;85.20;;;;;;5055801;28;20183;-80
2023/04/06 01:09:41;;;;;;;1.03;0.80;;;0.30;85.10;;;;;;5052434;28;20614;-79
2023/04/06 01:12:07;;;;;;;0.50;0.50;;;0.40;84.90;;;;;;5051356;28;20637;-80
2023/04/06 01:14:33;;;;;;;0.53;0.53;;;0.40;84.80;;;;;;5056672;28;20190;-80
2023/04/06 01:17:02;;;;;;;0.70;0.70;;;0.40;84.70;;;;;;5055486;28;20232;-81
2023/04/06 01:19:28;;;;;;;1.70;0.87;;;0.50;84.80;;;;;;5053584;28;20186;-80
2023/04/06 01:21:54;;;;;;;0.70;0.70;;;0.40;84.70;;;;;;5049821;28;20653;-80
2023/04/06 01:24:21;;;;;;;0.67;0.67;;;0.50;84.60;;;;;;5053472;28;20577;-81
2023/04/06 01:26:46;;;;;;;0.60;0.60;;;0.50;84.60;;;;;;5056519;28;20183;-81
2023/04/06 01:29:12;;;;;;;0.40;0.40;;;0.50;84.50;;;;;;5054692;28;20617;-80
2023/04/06 01:31:39;;;;;;;0.70;0.70;;;0.50;84.50;;;;;;5055822;28;20236;-79
2023/04/06 01:34:05;;;;;;;0.37;0.37;;;0.50;84.50;;;;;;5053903;28;20206;-80
2023/04/06 01:36:31;;;;;;;1.23;0.43;;;0.50;84.60;;;;;;5056988;28;20184;-80
2023/04/06 01:38:57;;;;;;;0.60;0.60;;;0.50;84.60;;;;;;5054581;28;20569;-78
2023/04/06 01:41:23;;;;;;;1.93;0.90;;;0.50;84.60;;;;;;5057192;28;20187;-79
2023/04/06 01:43:49;;;;;;;0.50;0.50;;;0.50;84.70;;;;;;5059650;28;20193;-79
2023/04/06 01:46:15;;;;;;;0.37;0.37;;;0.50;84.80;;;;;;5055869;28;20191;-80
2023/04/06 01:48:42;;;;;;;0.33;0.33;;;0.60;85.00;;;;;;5053986;28;20220;-80
2023/04/06 01:51:07;;;;;;;0.60;0.60;;;0.60;84.90;;;;;;5054520;28;20180;-80
2023/04/06 01:53:33;;;;;;;0.60;0.60;;;0.60;84.80;;;;;;5050258;28;20619;-80
2023/04/06 01:55:59;;;;;;;0.57;0.57;;;0.60;84.70;;;;;;5052111;28;20216;-80
2023/04/06 01:58:25;;;;;;;0.60;0.60;;;0.60;84.90;;;;;;5049238;28;20191;-81
2023/04/06 02:00:51;;;;;;;0.70;0.70;;;0.60;84.70;;;;;;5046189;28;20183;-81
2023/04/06 02:03:16;;;;;;;1.63;0.70;;;0.60;84.70;;;;;;5052941;28;20314;-80
2023/04/06 02:05:42;;;;;;;0.67;0.50;;;0.60;84.80;;;;;;5051669;28;21132;-81
2023/04/06 02:08:08;;;;;;;0.47;0.47;;;0.60;84.50;;;;;;5051282;28;20212;-81
2023/04/06 02:10:34;;;;;;;0.60;0.60;;;0.70;84.40;;;;;;5049105;28;20443;-79
2023/04/06 02:13:00;;;;;;;0.40;0.40;;;0.70;84.50;;;;;;5051896;28;20179;-80
2023/04/06 02:15:27;;;;;;;0.30;0.30;;;0.70;84.40;;;;;;5050465;28;20186;-79
2023/04/06 02:17:53;;;;;;;0.50;0.50;;;0.60;84.40;;;;;;5050881;28;20178;-79
2023/04/06 02:20:18;;;;;;;1.53;1.23;;;0.70;84.50;;;;;;5048268;28;20303;-78
2023/04/06 02:22:44;;;;;;;0.67;0.67;;;0.60;84.30;;;;;;5055563;28;20175;-79
2023/04/06 02:25:10;;;;;;;0.50;0.50;;;0.60;84.40;;;;;;5047622;28;20180;-79
2023/04/06 02:27:36;;;;;;;0.50;0.40;;;0.70;84.20;;;;;;5056189;28;20215;-78
2023/04/06 02:30:05;;;;;;;0.53;0.50;;;0.70;84.20;;;;;;5056523;28;20180;-78
2023/04/06 02:32:31;;;;;;;0.47;0.47;;;0.70;84.40;;;;;;5052284;28;20617;-79
2023/04/06 02:34:57;;;;;;;0.60;0.60;;;0.70;84.50;;;;;;5048588;28;20195;-78
2023/04/06 02:37:23;;;;;;;0.80;0.80;;;0.80;84.30;;;;;;5052478;28;20736;-78
2023/04/06 02:39:49;;;;;;;0.53;0.53;;;0.80;84.10;;;;;;5051009;28;20222;-79
2023/04/06 02:42:15;;;;;;;0.50;0.43;;;0.80;83.90;;;;;;5052960;28;20288;-80
2023/04/06 02:44:44;;;;;;;0.43;0.43;;;0.80;84.10;;;;;;5059501;28;20234;-78
2023/04/06 02:47:10;;;;;;;1.73;0.50;;;0.80;84.20;;;;;;5050382;28;20202;-79
2023/04/06 02:49:36;;;;;;;0.63;0.50;;;0.80;84.00;;;;;;5053408;28;20709;-80
2023/04/06 02:52:02;;;;;;;0.40;0.40;;;0.80;83.90;;;;;;5050532;28;20248;-80
2023/04/06 02:54:28;;;;;;;0.80;0.50;;;0.80;84.20;;;;;;5054700;28;20190;-78
2023/04/06 02:56:54;;;;;;;0.50;0.50;;;0.80;84.50;;;;;;5051054;28;20184;-79
2023/04/06 02:59:20;;;;;;;0.50;0.50;;;0.70;84.20;;;;;;5054331;28;20183;-79
2023/04/06 03:01:45;;;;;;;0.50;0.50;;;0.70;84.40;;;;;;5052710;28;20179;-78
2023/04/06 03:04:11;;;;;;;0.77;0.77;;;0.70;84.40;;;;;;5051773;28;20184;-79
2023/04/06 03:06:37;;;;;;;0.73;0.60;;;0.70;84.40;;;;;;5054239;28;20181;-78
2023/04/06 03:09:03;;;;;;;0.90;0.90;;;0.70;84.40;;;;;;5048236;28;20214;-79
2023/04/06 03:11:29;;;;;;;0.50;0.50;;;0.70;84.30;;;;;;5050575;28;20183;-79
2023/04/06 03:13:55;;;;;;;0.70;0.70;;;0.70;84.40;;;;;;5054041;28;20189;-80
2023/04/06 03:16:20;;;;;;;1.43;1.00;;;0.70;84.30;;;;;;5051040;28;20218;-79
2023/04/06 03:18:46;;;;;;;0.60;0.53;;;0.80;84.10;;;;;;5048370;28;20570;-81
2023/04/06 03:21:15;;;;;;;0.77;0.70;;;0.80;84.10;;;;;;5047215;28;20187;-80
2023/04/06 03:23:41;;;;;;;1.07;0.60;;;0.80;83.80;;;;;;5053301;28;20656;-78
2023/04/06 03:26:06;;;;;;;0.37;0.37;;;0.80;83.90;;;;;;5053795;28;20191;-80
2023/04/06 03:28:32;;;;;;;1.00;0.73;;;0.90;83.90;;;;;;5046423;28;20211;-80
2023/04/06 03:30:58;;;;;;;0.40;0.40;;;0.90;83.90;;;;;;5049850;28;20190;-78
2023/04/06 03:33:26;;;;;;;0.57;0.57;;;0.80;83.90;;;;;;5051122;28;20185;-79
2023/04/06 03:35:53;;;;;;;0.80;0.80;;;0.90;84.00;;;;;;5054576;28;20188;-78
2023/04/06 03:38:19;;;;;;;0.30;0.30;;;1.00;83.90;;;;;;5055111;28;20191;-78
2023/04/06 03:40:45;;;;;;;0.70;0.70;;;0.90;83.80;;;;;;5052329;28;20176;-79
2023/04/06 03:43:10;;;;;;;0.80;0.80;;;0.90;83.70;;;;;;5053745;28;20193;-79
2023/04/06 03:45:36;;;;;;;0.63;0.63;;;0.90;83.70;;;;;;5050472;28;20699;-79
2023/04/06 03:48:04;;;;;;;0.63;0.63;;;0.90;83.60;;;;;;5047473;28;20222;-79
2023/04/06 03:50:30;;;;;;;1.00;0.70;;;1.00;83.70;;;;;;5050117;28;20176;-79
2023/04/06 03:52:56;;;;;;;0.70;0.70;;;1.00;83.60;;;;;;5051932;28;20186;-80
2023/04/06 03:55:21;;;;;;;0.50;0.50;;;1.10;83.40;;;;;;5048403;28;20611;-79
2023/04/06 03:57:47;;;;;;;0.80;0.60;;;1.10;83.20;;;;;;5055247;28;20857;-80
2023/04/06 04:00:13;;;;;;;0.70;0.70;;;1.10;83.20;;;;;;5051384;28;20201;-79
2023/04/06 04:02:39;;;;;;;0.70;0.70;;;1.10;83.10;;;;;;5050653;28;20176;-79
2023/04/06 04:05:05;;;;;;;0.50;0.47;;;1.10;82.80;;;;;;5051284;28;20186;-79
2023/04/06 04:07:31;;;;;;;0.90;0.90;;;1.10;82.90;;;;;;5056371;28;20219;-79
2023/04/06 04:09:56;;;;;;;0.53;0.53;;;1.10;82.70;;;;;;5052202;28;20900;-79
2023/04/06 04:12:22;;;;;;;0.60;0.60;;;1.00;83.20;;;;;;5052127;28;20317;-77
2023/04/06 04:14:47;;;;;;;1.17;0.53;;;1.00;83.30;;;;;;5052687;28;20647;-77
2023/04/06 04:17:13;;;;;;;0.63;0.63;;;1.10;83.40;;;;;;5048373;28;20183;-77
2023/04/06 04:19:39;;;;;;;0.60;0.60;;;1.10;83.10;;;;;;5055567;28;20172;-77
2023/04/06 04:22:06;;;;;;;0.60;0.60;;;1.00;83.20;;;;;;5048046;28;20207;-78
2023/04/06 04:24:32;;;;;;;0.40;0.40;;;1.10;83.20;;;;;;5051057;28;20302;-79
2023/04/06 04:26:58;;;;;;;1.03;0.73;;;1.10;83.10;;;;;;5046251;28;20171;-79
2023/04/06 04:29:23;;;;;;;0.83;0.83;;;1.10;83.40;;;;;;5048642;28;20731;-81
2023/04/06 04:31:50;;;;;;;0.50;0.50;;;1.10;83.40;;;;;;5044406;28;20183;-82
2023/04/06 04:34:16;;;;;;;1.20;0.53;;;1.10;83.20;;;;;;5049342;28;20183;-78
2023/04/06 04:36:42;;;;;;;1.03;0.80;;;1.20;83.20;;;;;;5052254;28;20671;-79
2023/04/06 04:39:08;;;;;;;0.73;0.73;;;1.30;82.90;;;;;;5054756;28;20199;-82
2023/04/06 04:41:33;;;;;;;0.70;0.70;;;1.30;82.70;;;;;;5046252;28;20654;-79
2023/04/06 04:43:59;;;;;;;0.70;0.70;;;1.30;82.70;;;;;;5053080;28;20269;-81
2023/04/06 04:46:25;;;;;;;1.03;0.93;;;1.30;82.70;;;;;;5053287;28;20654;-81
2023/04/06 04:48:50;;;;;;;0.37;0.37;;;1.30;82.70;;;;;;5049034;28;20763;-76
2023/04/06 04:51:16;;;;;;;0.77;0.77;;;1.30;82.70;;;;;;5048988;28;20849;-77
2023/04/06 04:53:42;;;;;;;0.40;0.40;;;1.30;82.80;;;;;;5048139;28;20219;-76
2023/04/06 04:56:07;;;;;;;1.10;1.10;;;1.20;82.90;;;;;;5049982;28;20175;-76
2023/04/06 04:58:33;;;;;;;0.57;0.57;;;1.30;82.90;;;;;;5054647;28;20194;-76
2023/04/06 05:00:59;;;;;;;0.50;0.50;;;1.30;82.40;;;;;;5051148;28;20565;-81
2023/04/06 05:03:26;;;;;;;0.40;0.40;;;1.30;82.70;;;;;;5063974;28;20952;-80
2023/04/06 05:05:52;;;;;;;2.78;2.58;;;1.30;82.80;;;;;;5050394;28;20497;-78
2023/04/06 05:08:18;;;;;;;1.10;1.10;;;1.30;82.80;;;;;;5045723;28;20207;-74
2023/04/06 05:10:45;;;;;;;0.70;0.70;;;1.30;82.80;;;;;;5048135;28;20195;-74
2023/04/06 05:13:11;;;;;;;1.20;1.03;;;1.30;83.10;;;;;;5051731;28;20192;-73
2023/04/06 05:15:40;;;;;;;1.57;0.70;;;1.30;83.40;;;;;;5054981;28;20188;-74
2023/04/06 05:18:09;;;;;;;0.80;0.80;;;1.40;83.20;;;;;;5053682;28;20628;-74
2023/04/06 05:20:35;;;;;;;1.00;1.00;;;1.50;83.00;;;;;;5054482;28;20188;-74
2023/04/06 05:23:01;;;;;;;0.67;0.67;;;1.50;82.70;;;;;;5050442;28;20563;-74
2023/04/06 05:25:27;;;;;;;0.80;0.80;;;1.50;82.80;;;;;;5051328;28;20183;-74
2023/04/06 05:27:53;;;;;;;1.60;1.03;;;1.60;82.90;;;;;;5054875;28;20294;-74
2023/04/06 05:30:20;;;;;;;4.30;1.27;;;1.60;82.90;;;;;;5050835;28;20171;-74
2023/04/06 05:32:46;;;;;;;3.03;0.90;;;1.60;82.80;;;;;;5058090;28;20565;-73
2023/04/06 05:35:12;;;;;;;1.00;0.73;;;1.60;82.90;;;;;;5054202;28;20176;-74
2023/04/06 05:37:38;;;;;;;0.90;0.90;;;1.70;83.00;;;;;;5055042;28;20183;-74
2023/04/06 05:40:05;;;;;;;2.53;1.10;;;1.70;82.90;;;;;;5056136;28;20270;-74
2023/04/06 05:42:43;;;;;;;0.90;0.90;;;1.70;83.20;;;;;;5056711;28;20179;-74
2023/04/06 05:45:11;;;;;;;1.50;1.20;;;1.80;83.30;;;;;;5057225;28;20192;-75
2023/04/06 05:47:37;;;;;;;2.50;1.20;;;1.70;83.30;;;;;;5054594;28;20607;-75
2023/04/06 05:50:03;;;;;;;1.03;1.03;;;1.70;83.70;;;;;;5059913;28;20179;-74
2023/04/06 05:52:28;;;;;;;1.50;1.27;;;1.70;83.90;;;;;;5059286;28;20186;-74
2023/04/06 05:54:54;;;;;;;1.43;1.20;;;1.80;83.70;;;;;;5051992;28;20189;-74
2023/04/06 05:57:20;;;;;;;1.43;1.17;;;1.80;83.60;;;;;;5053134;28;20179;-74
2023/04/06 05:59:45;;;;;;;1.57;1.13;;;1.80;83.20;;;;;;5054733;28;20184;-74
2023/04/06 06:02:11;;;;;;;0.97;0.97;;;1.70;83.70;;;;;;5058366;28;20592;-75
2023/04/06 06:04:37;;;;;;;1.40;1.40;;;1.60;84.10;;;;;;5057647;28;20175;-74
2023/04/06 06:07:03;;;;;;;1.63;1.03;;;1.70;84.20;;;;;;5056098;28;20174;-74
2023/04/06 06:09:29;;;;;;;1.00;1.00;;;1.70;84.20;;;;;;5058807;28;20211;-74
2023/04/06 06:11:54;;;;;;;1.00;1.00;;;1.80;84.20;;;;;;5058821;28;20261;-74
2023/04/06 06:14:21;;;;;;;2.20;1.20;;;1.90;83.70;;;;;;5059394;28;20190;-74
2023/04/06 06:16:47;;;;;;;1.73;1.03;;;1.90;83.60;;;;;;5056346;28;20175;-75
2023/04/06 06:19:13;;;;;;;2.13;1.40;;;1.90;84.20;;;;;;5052145;28;20249;-74
2023/04/06 06:21:39;;;;;;;1.23;0.93;;;2.00;84.40;;;;;;5053758;28;20180;-75
2023/04/06 06:24:05;;;;;;;1.97;1.40;;;2.20;84.30;;;;;;5054997;28;20870;-75
2023/04/06 06:26:31;;;;;;;1.60;1.47;;;2.40;83.90;;;;;;5050573;28;20190;-74
2023/04/06 06:28:57;;;;;;;1.27;1.20;;;2.60;83.30;;;;;;5051892;28;20215;-75
2023/04/06 06:31:22;;;;;;;1.13;1.07;;;2.70;82.90;;;;;;5046693;28;20211;-75
2023/04/06 06:33:51;;;;;;;1.70;1.50;;;2.90;82.30;;;;;;5051103;28;20228;-76
2023/04/06 06:36:20;;;;;;;2.00;1.53;;;3.00;82.00;;;;;;5050759;28;20237;-75
2023/04/06 06:38:45;;;;;;;3.17;1.40;;;3.00;81.50;;;;;;5050695;28;20194;-75
2023/04/06 06:41:11;;;;;;;1.60;1.50;;;3.00;81.40;;;;;;5048372;28;20597;-74
2023/04/06 06:43:37;;;;;;;1.67;1.57;;;3.10;81.50;;;;;;5050640;28;20186;-74
2023/04/06 06:46:03;;;;;;;1.73;1.63;;;3.30;81.40;;;;;;5052288;28;20180;-75
2023/04/06 06:48:30;;;;;;;1.70;1.60;;;3.40;81.00;;;;;;5054730;28;20269;-74
2023/04/06 06:50:56;;;;;;;1.97;1.90;;;3.50;80.00;;;;;;5048232;28;21082;-75
2023/04/06 06:53:22;;;;;;;1.83;1.70;;;3.50;79.80;;;;;;5049143;28;20726;-75
2023/04/06 06:55:51;;;;;;;1.77;1.63;;;3.40;80.00;;;;;;5047726;28;20600;-74
2023/04/06 06:58:19;;;;;;;2.03;1.40;;;3.40;79.90;;;;;;5052278;28;20209;-74
2023/04/06 07:00:45;;;;;;;1.50;1.50;;;3.60;80.20;;;;;;5049674;28;20200;-75
2023/04/06 07:03:11;;;;;;;1.90;1.67;;;3.70;79.40;;;;;;5052146;28;20653;-75
2023/04/06 07:05:37;;;;;;;2.67;2.20;;;3.90;79.10;;;;;;5050384;28;20171;-75
2023/04/06 07:08:03;;;;;;;2.33;1.77;;;3.90;78.40;;;;;;5045328;28;20569;-75
2023/04/06 07:10:28;;;;;;;2.10;2.00;;;3.80;78.50;;;;;;5045238;28;20191;-75
2023/04/06 07:12:54;;;;;;;1.93;1.67;;;4.10;78.80;;;;;;5049224;28;20259;-74
2023/04/06 07:15:20;;;;;;;1.70;1.60;;;3.90;77.80;;;;;;5048685;28;20639;-74
2023/04/06 07:17:46;;;;;;;2.57;2.37;;;3.70;78.00;;;;;;5049590;28;20190;-73
2023/04/06 07:20:12;;;;;;;1.97;1.80;;;3.60;78.20;;;;;;5053117;28;20180;-73
2023/04/06 07:22:38;;;;;;;1.87;1.77;;;3.70;78.40;;;;;;5054554;28;20595;-74
2023/04/06 07:25:04;;;;;;;1.97;1.87;;;3.60;78.20;;;;;;5046171;28;20180;-76
2023/04/06 07:27:30;;;;;;;2.43;2.23;;;3.90;78.80;;;;;;5052084;28;20599;-75
2023/04/06 07:29:56;;;;;;;1.67;1.57;;;4.00;78.10;;;;;;5047776;28;20190;-75
2023/04/06 07:32:22;;;;;;;2.07;1.87;;;3.90;78.00;;;;;;5050852;28;20648;-74
2023/04/06 07:34:47;;;;;;;2.17;2.03;;;3.90;77.90;;;;;;5049862;28;20722;-74
2023/04/06 07:37:13;;;;;;;2.00;1.57;;;3.90;78.30;;;;;;5052734;28;20197;-74
2023/04/06 07:39:40;;;;;;;2.30;2.00;;;3.80;77.90;;;;;;5053475;28;20241;-74
2023/04/06 07:42:06;;;;;;;2.27;2.07;;;3.70;78.50;;;;;;5041159;28;20168;-75
2023/04/06 07:44:31;;;;;;;1.73;1.60;;;3.80;78.50;;;;;;5051593;28;20687;-74
2023/04/06 07:46:57;;;;;;;2.07;1.83;;;4.00;77.80;;;;;;5045842;28;20179;-74
2023/04/06 07:49:23;;;;;;;2.57;1.60;;;4.00;77.70;;;;;;5050978;28;20214;-74
2023/04/06 07:51:49;;;;;;;2.57;2.47;;;4.10;77.50;;;;;;5047373;28;20175;-74
2023/04/06 07:54:14;;;;;;;1.53;1.33;;;4.00;77.70;;;;;;5056067;28;20179;-74
2023/04/06 07:56:40;;;;;;;2.37;2.17;;;4.00;78.20;;;;;;5048492;28;20179;-74
2023/04/06 07:59:06;;;;;;;5.87;2.20;;;4.10;78.00;;;;;;5051287;28;20195;-73
2023/04/06 08:01:32;;;;;;;1.63;1.37;;;4.00;78.20;;;;;;5047522;28;20670;-74
2023/04/06 08:03:58;;;;;;;2.33;2.13;;;4.10;78.00;;;;;;5050287;28;20186;-76
2023/04/06 08:06:23;;;;;;;1.90;1.80;;;4.10;77.90;;;;;;5049205;28;20248;-75
2023/04/06 08:08:49;;;;;;;3.47;1.77;;;4.20;77.70;;;;;;5064581;28;20212;-73
2023/04/06 08:11:15;;;;;;;3.60;2.20;;;4.30;77.60;;;;;;5044501;28;20212;-73
2023/04/06 08:13:41;;;;;;;2.10;1.90;;;4.40;77.00;;;;;;5050606;28;20801;-74
2023/04/06 08:16:07;;;;;;;1.90;1.80;;;4.50;76.60;;;;;;5049724;28;20172;-74
2023/04/06 08:18:32;;;;;;;2.57;2.37;;;4.60;76.20;;;;;;5047379;28;20200;-73
2023/04/06 08:20:58;;;;;;;3.33;2.83;;;4.70;76.10;;;;;;5050625;28;20182;-74
2023/04/06 08:23:24;;;;;;;1.97;1.87;;;4.70;75.90;;;;;;5049765;28;20190;-74
2023/04/06 08:25:50;;;;;;;2.20;2.10;;;4.60;75.80;;;;;;5044460;28;20223;-74
2023/04/06 08:28:15;;;;;;;3.37;2.27;;;4.80;76.00;;;;;;5050053;28;20217;-73
2023/04/06 08:30:42;;;;;;;2.30;2.20;;;4.70;75.60;;;;;;5047036;28;21205;-75
2023/04/06 08:33:08;;;;;;;2.03;1.93;;;5.00;75.80;;;;;;5049362;28;20189;-74
2023/04/06 08:35:34;;;;;;;2.90;2.30;;;5.20;75.30;;;;;;5044221;28;20232;-74
2023/04/06 08:38:00;;;;;;;2.80;2.10;;;5.60;74.00;;;;;;5050633;28;20183;-73
2023/04/06 08:40:26;;;;;;;2.30;2.10;;;5.90;73.40;;;;;;5049481;28;20892;-75
2023/04/06 08:42:55;;;;;;;2.40;2.20;;;6.10;72.00;;;;;;5050952;28;20167;-75
2023/04/06 08:45:21;;;;;;;2.43;2.27;;;6.00;71.90;;;;;;5045515;28;20211;-73
2023/04/06 08:47:50;;;;;;;3.23;2.80;;;6.20;71.90;;;;;;5054377;28;20199;-75
2023/04/06 08:50:17;;;;;;;2.30;2.20;;;6.40;71.40;;;;;;5049941;28;20230;-74
2023/04/06 08:52:46;;;;;;;2.07;1.97;;;6.40;69.90;;;;;;5048576;28;20179;-74
2023/04/06 08:55:11;;;;;;;3.07;2.30;;;6.00;70.10;;;;;;5052741;28;20183;-73
2023/04/06 08:57:37;;;;;;;2.10;2.00;;;6.00;70.60;;;;;;5048520;28;20180;-74
2023/04/06 09:00:05;;;;;;;1.37;1.37;;;6.40;70.10;;;;;;5051030;28;20229;-74
2023/04/06 09:02:31;;;;;;;3.17;2.47;;;6.60;69.00;;;;;;5052979;28;20183;-74
2023/04/06 09:04:57;;;;;;;3.23;2.70;;;6.50;69.10;;;;;;5049333;28;20619;-75
2023/04/06 09:07:23;;;;;;;2.73;2.53;;;6.60;69.10;;;;;;5048496;28;20250;-74
2023/04/06 09:09:51;;;;;;;2.53;2.43;;;7.20;68.60;;;;;;5051183;28;20204;-75
2023/04/06 09:12:30;;;;;;;2.97;2.67;;;7.70;66.40;;;;;;5053847;28;20185;-74
2023/04/06 09:14:57;;;;;;;2.83;2.63;;;8.10;65.80;;;;;;5052782;28;20197;-74
2023/04/06 09:17:32;;;;;;;2.43;2.23;;;8.60;65.10;;;;;;5050291;28;20188;-75
2023/04/06 09:19:59;;;;;;;2.20;2.17;;;8.50;64.80;;;;;;5080185;28;20226;-74
2023/04/06 09:22:26;;;;;;;2.47;2.37;;;8.80;64.00;;;;;;5048785;28;20396;-74
2023/04/06 09:24:53;;;;;;;2.40;1.90;;;8.40;64.70;;;;;;5051976;28;20171;-74
2023/04/06 09:27:33;;;;;;;3.50;3.20;;;8.30;65.10;;;;;;5045987;28;20172;-74
2023/04/06 09:30:06;;;;;;;3.23;2.93;;;8.30;65.50;;;;;;5049241;28;20235;-75
2023/04/06 09:32:32;;;;;;;9.97;2.97;;;8.20;65.70;;;;;;5047661;28;20191;-74
2023/04/06 09:35:10;;;;;;;3.33;3.10;;;8.20;65.80;;;;;;5045786;28;20192;-74
2023/04/06 09:37:35;;;;;;;2.40;2.27;;;8.90;65.90;;;;;;5054955;28;20187;-73
2023/04/06 09:40:06;;;;;;;2.80;2.63;;;8.90;63.50;;;;;;5053024;28;20174;-74
2023/04/06 09:42:34;;;;;;;2.83;2.73;;;8.30;64.10;;;;;;5048941;28;20187;-73
2023/04/06 09:44:59;;;;;;;3.30;3.00;;;7.80;65.50;;;;;;5050875;28;20202;-74
2023/04/06 09:47:26;;;;;;;3.33;3.13;;;8.00;65.60;;;;;;5050833;28;20183;-74
2023/04/06 09:49:57;;;;;;;2.80;2.60;;;8.10;65.50;;;;;;5054950;28;20678;-74
2023/04/06 09:52:48;;;;;;;2.87;2.67;;;7.80;65.80;;;;;;5063496;28;20198;-73
2023/04/06 09:55:25;;;;;;;4.90;3.47;;;7.70;66.20;;;;;;5048382;28;20175;-76
2023/04/06 09:58:08;;;;;;;5.93;2.93;;;7.50;65.60;;;;;;5046259;28;20176;-75
2023/04/06 10:00:54;;;;;;;3.17;2.97;;;7.10;65.90;;;;;;5050415;28;20191;-74
2023/04/06 10:03:20;;;;;;;2.43;2.33;;;7.30;66.30;;;;;;5052394;28;20240;-74
2023/04/06 10:05:50;;;;;;;3.63;3.33;;;7.30;66.70;;;;;;5049805;28;20187;-74
2023/04/06 10:08:17;;;;;;;2.57;2.37;;;7.30;66.00;;;;;;5050612;28;20218;-74
2023/04/06 10:10:44;;;;;;;2.47;2.33;;;7.40;65.00;;;;;;5047520;28;20241;-74
2023/04/06 10:13:11;;;;;;;2.60;2.50;;;7.40;65.80;;;;;;5050716;28;20871;-74
2023/04/06 10:15:38;;;;;;;4.27;2.93;;;7.40;65.80;;;;;;5049947;28;20258;-74
2023/04/06 10:18:04;;;;;;;2.40;2.30;;;7.00;66.70;;;;;;5041527;28;20176;-74
2023/04/06 10:20:40;;;;;;;2.47;2.37;;;7.00;66.90;;;;;;5043756;28;20184;-75
2023/04/06 10:23:36;;;;;;;2.33;2.13;;;6.90;66.10;;;;;;5052249;28;20191;-73
2023/04/06 10:26:03;;;;;;;3.03;2.83;;;7.10;66.90;;;;;;5048716;28;20180;-75
2023/04/06 10:28:34;;;;;;;2.47;2.27;;;7.50;65.90;;;;;;5053867;28;20266;-73
2023/04/06 10:31:01;;;;;;;2.40;2.30;;;7.60;65.10;;;;;;5049730;28;20180;-74
2023/04/06 10:33:27;;;;;;;2.97;2.43;;;7.40;65.10;;;;;;5050468;28;20269;-73
2023/04/06 10:35:55;;;;;;;4.67;2.87;;;7.30;65.90;;;;;;5050458;28;20188;-73
2023/04/06 10:38:22;;;;;;;4.00;2.90;;;7.30;65.80;;;;;;5048089;28;20285;-74
2023/04/06 10:40:49;;;;;;;2.37;2.17;;;7.30;65.20;;;;;;5052340;28;20184;-74
2023/04/06 10:43:21;;;;;;;3.73;2.40;;;7.10;66.00;;;;;;5048136;28;20175;-73
2023/04/06 10:45:59;;;;;;;3.17;2.83;;;6.80;66.90;;;;;;5049465;28;20188;-73
2023/04/06 10:48:35;;;;;;;2.40;2.20;;;7.00;67.00;;;;;;5056984;28;20917;-73
2023/04/06 10:51:02;;;;;;;2.60;2.43;;;7.50;66.10;;;;;;5057901;28;20705;-75
2023/04/06 10:53:28;;;;;;;2.23;2.13;;;8.50;65.20;;;;;;5060331;28;20732;-74
2023/04/06 10:55:57;;;;;;;3.57;2.87;;;9.30;63.80;;;;;;5047541;28;20188;-74
2023/04/06 10:58:27;;;;;;;3.60;2.20;;;10.00;61.20;;;;;;5052270;28;20627;-74
2023/04/06 11:00:54;;;;;;;2.00;1.90;;;9.90;59.70;;;;;;5053842;28;20186;-74
2023/04/06 11:03:20;;;;;;;2.83;2.63;;;9.50;61.10;;;;;;5049631;28;20626;-74
2023/04/06 11:05:47;;;;;;;3.63;2.83;;;9.30;62.20;;;;;;5048318;28;20649;-74
2023/04/06 11:08:32;;;;;;;2.57;2.40;;;9.50;61.80;;;;;;5049317;28;20214;-74
2023/04/06 11:11:05;;;;;;;2.70;2.50;;;9.40;60.80;;;;;;5053975;28;20172;-76
2023/04/06 11:13:44;;;;;;;2.33;2.23;;;9.70;61.70;;;;;;5054983;28;20558;-73
2023/04/06 11:16:27;;;;;;;2.37;2.27;;;10.30;61.60;;;;;;5051549;28;20211;-73
2023/04/06 11:19:02;;;;;;;2.17;2.08;;;10.90;58.80;;;;;;5051077;28;20584;-72
2023/04/06 11:21:39;;;;;;;2.65;2.47;;;11.50;57.90;;;;;;5056637;28;20182;-73
2023/04/06 11:24:12;;;;;;;2.60;2.50;;;11.50;57.20;;;;;;5057031;28;20182;-73
2023/04/06 11:26:44;;;;;;;2.85;2.72;;;11.30;57.50;;;;;;5057483;28;20264;-74
2023/04/06 11:29:11;;;;;;;2.55;2.42;;;11.00;58.60;;;;;;5047752;28;20294;-73
2023/04/06 11:31:46;;;;;;;3.50;3.20;;;11.30;58.90;;;;;;5048585;28;20673;-73
2023/04/06 11:34:22;;;;;;;2.97;2.78;;;11.50;58.30;;;;;;5056738;28;20248;-74
2023/04/06 11:36:54;;;;;;;2.78;2.63;;;11.50;58.00;;;;;;5054347;28;20171;-73
2023/04/06 11:39:21;;;;;;;3.10;2.90;;;11.50;57.20;;;;;;5056679;28;20183;-73
2023/04/06 11:41:50;;;;;;;2.95;2.80;;;11.40;57.60;;;;;;5055641;28;20192;-73
2023/04/06 11:44:49;;;;;;;2.97;2.78;;;10.70;58.20;;;;;;5052204;28;20230;-76
2023/04/06 11:47:15;;;;;;;3.47;3.17;;;10.20;58.40;;;;;;5085530;28;20180;-74
2023/04/06 11:49:42;;;;;;;3.42;3.13;;;9.60;59.80;;;;;;5055343;28;20791;-74
2023/04/06 11:52:16;;;;;;;3.15;2.85;;;9.40;61.20;;;;;;5053477;28;20193;-73
2023/04/06 11:54:42;;;;;;;2.88;2.65;;;9.20;61.40;;;;;;5050573;28;20261;-74
2023/04/06 11:57:09;;;;;;;2.70;2.50;;;9.10;61.50;;;;;;5053888;28;20283;-73
2023/04/06 11:59:35;;;;;;;2.73;2.43;;;8.40;61.80;;;;;;5053087;28;20183;-73
2023/04/06 12:02:02;;;;;;;2.87;2.67;;;8.00;63.00;;;;;;5055349;28;20214;-74
2023/04/06 12:04:28;;;;;;;2.67;2.57;;;7.70;63.70;;;;;;5053487;28;20199;-74
2023/04/06 12:06:54;;;;;;;2.60;2.50;;;7.40;64.70;;;;;;5055034;28;20261;-72
2023/04/06 12:09:20;;;;;;;3.30;3.00;;;7.50;65.50;;;;;;5050057;28;20264;-74
2023/04/06 12:11:45;;;;;;;2.53;2.43;;;7.70;65.50;;;;;;5050957;28;20198;-74
2023/04/06 12:14:12;;;;;;;2.67;2.57;;;7.70;65.20;;;;;;5054429;28;20183;-74
2023/04/06 12:16:38;;;;;;;2.60;2.50;;;7.60;65.60;;;;;;5055131;28;20176;-74
2023/04/06 12:19:04;;;;;;;2.43;2.30;;;7.70;65.60;;;;;;5058029;28;20197;-74
2023/04/06 12:21:37;;;;;;;3.37;2.87;;;7.70;65.70;;;;;;5054294;28;20190;-73
2023/04/06 12:24:03;;;;;;;2.93;2.70;;;7.40;65.20;;;;;;5061907;28;20179;-76
2023/04/06 12:26:30;;;;;;;3.60;3.30;;;7.00;65.50;;;;;;5052101;28;20174;-73
2023/04/06 12:28:56;;;;;;;2.50;2.37;;;6.70;66.20;;;;;;5049916;28;20503;-73
2023/04/06 12:31:22;;;;;;;2.97;2.70;;;6.60;66.90;;;;;;5049135;28;20214;-74
2023/04/06 12:33:51;;;;;;;2.60;2.03;;;6.60;66.90;;;;;;5055918;28;20190;-74
2023/04/06 12:36:19;;;;;;;2.23;2.13;;;6.60;66.80;;;;;;5060334;28;20256;-74
2023/04/06 12:38:48;;;;;;;2.47;2.27;;;6.70;67.20;;;;;;5045084;28;20187;-74
2023/04/06 12:41:14;;;;;;;2.63;2.53;;;6.80;66.50;;;;;;5053686;28;20179;-74
2023/04/06 12:43:41;;;;;;;3.70;2.57;;;6.70;66.40;;;;;;5048813;28;20281;-74
2023/04/06 12:46:07;;;;;;;2.60;2.40;;;6.70;66.70;;;;;;5059906;28;20261;-74
2023/04/06 12:48:33;;;;;;;2.93;2.27;;;6.80;66.60;;;;;;5055561;28;20961;-74
2023/04/06 12:51:03;;;;;;;2.80;2.70;;;7.00;66.50;;;;;;5053760;28;21742;-74
2023/04/06 12:53:29;;;;;;;2.97;2.60;;;7.00;66.30;;;;;;5056719;28;20668;-74
2023/04/06 12:55:56;;;;;;;3.53;2.53;;;6.90;66.00;;;;;;5058941;28;20194;-74
2023/04/06 12:58:23;;;;;;;2.40;2.30;;;6.90;66.30;;;;;;5062054;28;22071;-74